sensor_id;sensor_type;location;lat;lon;timestamp;P1;durP1;ratioP1;P2;durP2;ratioP2
63444;SDS011;49573;47.682;9.170;2023-04-07T00:00:06;8.15;;;5.05;;
63444;SDS011;49573;47.682;9.170;2023-04-07T00:02:53;9.05;;;5.50;;
63444;SDS011;49573;47.682;9.170;2023-04-07T00:05:40;7.75;;;5.18;;
63444;SDS011;49573;47.682;9.170;2023-04-07T00:08:26;7.97;;;4.88;;
63444;SDS011;49573;47.682;9.170;2023-04-07T00:11:13;7.72;;;5.05;;
63444;SDS011;49573;47.682;9.170;2023-04-07T00:13:59;8.15;;;4.55;;
63444;SDS011;49573;47.682;9.170;2023-04-07T00:16:45;6.65;;;4.68;;
63444;SDS011;49573;47.682;9.170;2023-04-07T00:19:31;6.78;;;4.70;;
63444;SDS011;49573;47.682;9.170;2023-04-07T00:22:18;7.25;;;4.85;;
63444;SDS011;49573;47.682;9.170;2023-04-07T00:25:04;6.85;;;4.43;;
63444;SDS011;49573;47.682;9.170;2023-04-07T00:30:38;7.45;;;4.70;;
63444;SDS011;49573;47.682;9.170;2023-04-07T00:33:24;7.97;;;4.78;;
63444;SDS011;49573;47.682;9.170;2023-04-07T00:36:10;9.05;;;4.80;;
63444;SDS011;49573;47.682;9.170;2023-04-07T00:38:56;8.05;;;4.55;;
63444;SDS011;49573;47.682;9.170;2023-04-07T00:41:42;6.93;;;4.20;;
63444;SDS011;49573;47.682;9.170;2023-04-07T00:44:30;6.78;;;3.90;;
63444;SDS011;49573;47.682;9.170;2023-04-07T00:47:16;6.45;;;4.30;;
63444;SDS011;49573;47.682;9.170;2023-04-07T00:50:02;9.73;;;4.53;;
63444;SDS011;49573;47.682;9.170;2023-04-07T00:52:49;6.10;;;3.75;;
63444;SDS011;49573;47.682;9.170;2023-04-07T00:55:35;9.32;;;4.40;;
63444;SDS011;49573;47.682;9.170;2023-04-07T00:58:21;7.30;;;4.25;;
63444;SDS011;49573;47.682;9.170;2023-04-07T01:01:10;7.13;;;4.32;;
63444;SDS011;49573;47.682;9.170;2023-04-07T01:04:00;5.65;;;4.15;;
63444;SDS011;49573;47.682;9.170;2023-04-07T01:06:51;6.07;;;3.95;;
63444;SDS011;49573;47.682;9.170;2023-04-07T01:09:45;7.50;;;3.78;;
63444;SDS011;49573;47.682;9.170;2023-04-07T01:12:35;6.97;;;4.35;;
63444;SDS011;49573;47.682;9.170;2023-04-07T01:15:26;7.10;;;4.55;;
63444;SDS011;49573;47.682;9.170;2023-04-07T01:18:16;6.57;;;4.28;;
63444;SDS011;49573;47.682;9.170;2023-04-07T01:21:08;6.35;;;4.07;;
63444;SDS011;49573;47.682;9.170;2023-04-07T01:24:04;7.53;;;4.28;;
63444;SDS011;49573;47.682;9.170;2023-04-07T01:27:12;8.65;;;5.00;;
63444;SDS011;49573;47.682;9.170;2023-04-07T01:30:05;7.88;;;4.30;;
63444;SDS011;49573;47.682;9.170;2023-04-07T01:32:54;7.75;;;4.85;;
63444;SDS011;49573;47.682;9.170;2023-04-07T01:35:42;6.75;;;4.65;;
63444;SDS011;49573;47.682;9.170;2023-04-07T01:41:16;6.93;;;4.78;;
63444;SDS011;49573;47.682;9.170;2023-04-07T01:44:02;6.80;;;4.60;;
63444;SDS011;49573;47.682;9.170;2023-04-07T01:46:52;6.75;;;4.47;;
63444;SDS011;49573;47.682;9.170;2023-04-07T01:49:39;8.77;;;4.85;;
63444;SDS011;49573;47.682;9.170;2023-04-07T01:52:25;6.55;;;4.90;;
63444;SDS011;49573;47.682;9.170;2023-04-07T01:55:12;7.00;;;4.35;;
63444;SDS011;49573;47.682;9.170;2023-04-07T01:58:02;6.95;;;4.40;;
63444;SDS011;49573;47.682;9.170;2023-04-07T02:00:49;6.82;;;4.55;;
63444;SDS011;49573;47.682;9.170;2023-04-07T02:03:38;6.95;;;4.47;;
63444;SDS011;49573;47.682;9.170;2023-04-07T02:06:31;10.02;;;5.18;;
63444;SDS011;49573;47.682;9.170;2023-04-07T02:09:21;8.00;;;5.28;;
63444;SDS011;49573;47.682;9.170;2023-04-07T02:12:10;7.88;;;4.90;;
63444;SDS011;49573;47.682;9.170;2023-04-07T02:14:58;7.53;;;4.72;;
63444;SDS011;49573;47.682;9.170;2023-04-07T02:17:46;6.38;;;4.57;;
63444;SDS011;49573;47.682;9.170;2023-04-07T02:20:37;6.72;;;4.40;;
63444;SDS011;49573;47.682;9.170;2023-04-07T02:23:25;8.20;;;5.03;;
63444;SDS011;49573;47.682;9.170;2023-04-07T02:26:12;10.38;;;4.50;;
63444;SDS011;49573;47.682;9.170;2023-04-07T02:28:58;6.90;;;4.57;;
63444;SDS011;49573;47.682;9.170;2023-04-07T02:31:44;5.88;;;4.25;;
63444;SDS011;49573;47.682;9.170;2023-04-07T02:34:30;6.68;;;4.68;;
63444;SDS011;49573;47.682;9.170;2023-04-07T02:37:17;6.78;;;4.22;;
63444;SDS011;49573;47.682;9.170;2023-04-07T02:40:04;6.60;;;4.30;;
63444;SDS011;49573;47.682;9.170;2023-04-07T02:45:36;6.65;;;4.47;;
63444;SDS011;49573;47.682;9.170;2023-04-07T02:48:22;8.27;;;4.70;;
63444;SDS011;49573;47.682;9.170;2023-04-07T02:51:08;7.68;;;4.53;;
63444;SDS011;49573;47.682;9.170;2023-04-07T02:53:56;6.30;;;4.10;;
63444;SDS011;49573;47.682;9.170;2023-04-07T02:56:42;7.63;;;4.60;;
63444;SDS011;49573;47.682;9.170;2023-04-07T02:59:28;9.30;;;4.53;;
63444;SDS011;49573;47.682;9.170;2023-04-07T03:02:14;7.88;;;3.83;;
63444;SDS011;49573;47.682;9.170;2023-04-07T03:05:00;7.07;;;4.43;;
63444;SDS011;49573;47.682;9.170;2023-04-07T03:07:48;7.75;;;4.10;;
63444;SDS011;49573;47.682;9.170;2023-04-07T03:10:35;6.15;;;4.03;;
63444;SDS011;49573;47.682;9.170;2023-04-07T03:13:21;5.97;;;4.07;;
63444;SDS011;49573;47.682;9.170;2023-04-07T03:16:07;7.78;;;4.13;;
63444;SDS011;49573;47.682;9.170;2023-04-07T03:18:53;4.68;;;3.58;;
63444;SDS011;49573;47.682;9.170;2023-04-07T03:21:39;5.57;;;3.85;;
63444;SDS011;49573;47.682;9.170;2023-04-07T03:24:25;6.25;;;4.00;;
63444;SDS011;49573;47.682;9.170;2023-04-07T03:27:13;5.97;;;4.05;;
63444;SDS011;49573;47.682;9.170;2023-04-07T03:29:59;5.97;;;3.83;;
63444;SDS011;49573;47.682;9.170;2023-04-07T03:32:45;6.50;;;4.00;;
63444;SDS011;49573;47.682;9.170;2023-04-07T03:35:31;5.93;;;3.75;;
63444;SDS011;49573;47.682;9.170;2023-04-07T03:38:17;5.55;;;3.65;;
63444;SDS011;49573;47.682;9.170;2023-04-07T03:41:03;6.40;;;4.03;;
63444;SDS011;49573;47.682;9.170;2023-04-07T03:43:50;5.65;;;4.28;;
63444;SDS011;49573;47.682;9.170;2023-04-07T03:46:36;5.93;;;4.38;;
63444;SDS011;49573;47.682;9.170;2023-04-07T03:49:22;5.65;;;3.88;;
63444;SDS011;49573;47.682;9.170;2023-04-07T03:52:08;6.75;;;4.78;;
63444;SDS011;49573;47.682;9.170;2023-04-07T03:54:55;7.60;;;4.40;;
63444;SDS011;49573;47.682;9.170;2023-04-07T03:57:41;7.22;;;4.90;;
63444;SDS011;49573;47.682;9.170;2023-04-07T04:00:28;7.90;;;5.28;;
63444;SDS011;49573;47.682;9.170;2023-04-07T04:03:16;8.45;;;5.20;;
63444;SDS011;49573;47.682;9.170;2023-04-07T04:06:02;7.97;;;5.25;;
63444;SDS011;49573;47.682;9.170;2023-04-07T04:08:48;8.77;;;5.15;;
63444;SDS011;49573;47.682;9.170;2023-04-07T04:11:34;8.18;;;5.00;;
63444;SDS011;49573;47.682;9.170;2023-04-07T04:14:20;7.67;;;4.87;;
63444;SDS011;49573;47.682;9.170;2023-04-07T04:17:08;7.78;;;4.45;;
63444;SDS011;49573;47.682;9.170;2023-04-07T04:19:54;7.35;;;4.45;;
63444;SDS011;49573;47.682;9.170;2023-04-07T04:22:40;7.38;;;4.75;;
63444;SDS011;49573;47.682;9.170;2023-04-07T04:25:26;6.45;;;4.25;;
63444;SDS011;49573;47.682;9.170;2023-04-07T04:28:12;6.03;;;4.10;;
63444;SDS011;49573;47.682;9.170;2023-04-07T04:30:58;6.85;;;3.95;;
63444;SDS011;49573;47.682;9.170;2023-04-07T04:33:45;6.78;;;3.92;;
63444;SDS011;49573;47.682;9.170;2023-04-07T04:36:31;5.90;;;3.70;;
63444;SDS011;49573;47.682;9.170;2023-04-07T04:39:17;5.45;;;3.75;;
63444;SDS011;49573;47.682;9.170;2023-04-07T04:42:03;7.20;;;4.10;;
63444;SDS011;49573;47.682;9.170;2023-04-07T04:44:50;7.03;;;4.50;;
63444;SDS011;49573;47.682;9.170;2023-04-07T04:47:36;7.68;;;4.22;;
63444;SDS011;49573;47.682;9.170;2023-04-07T04:50:24;7.70;;;4.45;;
63444;SDS011;49573;47.682;9.170;2023-04-07T04:53:10;5.65;;;3.85;;
63444;SDS011;49573;47.682;9.170;2023-04-07T04:55:56;6.68;;;3.90;;
63444;SDS011;49573;47.682;9.170;2023-04-07T04:58:42;6.63;;;4.50;;
63444;SDS011;49573;47.682;9.170;2023-04-07T05:01:30;6.38;;;3.75;;
63444;SDS011;49573;47.682;9.170;2023-04-07T05:04:16;6.68;;;4.32;;
63444;SDS011;49573;47.682;9.170;2023-04-07T05:07:04;5.85;;;4.15;;
63444;SDS011;49573;47.682;9.170;2023-04-07T05:09:50;7.38;;;4.50;;
63444;SDS011;49573;47.682;9.170;2023-04-07T05:12:36;6.53;;;4.60;;
63444;SDS011;49573;47.682;9.170;2023-04-07T05:15:22;6.93;;;4.15;;
63444;SDS011;49573;47.682;9.170;2023-04-07T05:18:08;6.05;;;4.03;;
63444;SDS011;49573;47.682;9.170;2023-04-07T05:20:54;6.53;;;4.00;;
63444;SDS011;49573;47.682;9.170;2023-04-07T05:23:41;6.57;;;3.58;;
63444;SDS011;49573;47.682;9.170;2023-04-07T05:26:27;6.72;;;3.85;;
63444;SDS011;49573;47.682;9.170;2023-04-07T05:29:13;5.25;;;3.88;;
63444;SDS011;49573;47.682;9.170;2023-04-07T05:32:00;6.50;;;3.75;;
63444;SDS011;49573;47.682;9.170;2023-04-07T05:34:46;6.20;;;4.05;;
63444;SDS011;49573;47.682;9.170;2023-04-07T05:37:32;5.95;;;3.92;;
63444;SDS011;49573;47.682;9.170;2023-04-07T05:40:19;5.70;;;4.10;;
63444;SDS011;49573;47.682;9.170;2023-04-07T05:43:05;5.75;;;3.70;;
63444;SDS011;49573;47.682;9.170;2023-04-07T05:45:51;6.22;;;3.95;;
63444;SDS011;49573;47.682;9.170;2023-04-07T05:48:37;7.40;;;4.25;;
63444;SDS011;49573;47.682;9.170;2023-04-07T05:51:23;5.90;;;3.88;;
63444;SDS011;49573;47.682;9.170;2023-04-07T05:54:10;6.03;;;3.80;;
63444;SDS011;49573;47.682;9.170;2023-04-07T05:56:57;5.93;;;4.07;;
63444;SDS011;49573;47.682;9.170;2023-04-07T05:59:43;5.75;;;3.80;;
63444;SDS011;49573;47.682;9.170;2023-04-07T06:02:30;4.73;;;3.37;;
63444;SDS011;49573;47.682;9.170;2023-04-07T06:05:16;5.80;;;3.70;;
63444;SDS011;49573;47.682;9.170;2023-04-07T06:08:02;4.80;;;3.58;;
63444;SDS011;49573;47.682;9.170;2023-04-07T06:10:48;7.03;;;3.50;;
63444;SDS011;49573;47.682;9.170;2023-04-07T06:13:35;6.85;;;4.00;;
63444;SDS011;49573;47.682;9.170;2023-04-07T06:16:21;7.75;;;4.20;;
63444;SDS011;49573;47.682;9.170;2023-04-07T06:19:07;6.10;;;4.07;;
63444;SDS011;49573;47.682;9.170;2023-04-07T06:21:54;5.93;;;4.05;;
63444;SDS011;49573;47.682;9.170;2023-04-07T06:24:40;6.97;;;4.75;;
63444;SDS011;49573;47.682;9.170;2023-04-07T06:27:26;7.55;;;4.82;;
63444;SDS011;49573;47.682;9.170;2023-04-07T06:30:14;9.02;;;4.82;;
63444;SDS011;49573;47.682;9.170;2023-04-07T06:33:00;7.53;;;4.97;;
63444;SDS011;49573;47.682;9.170;2023-04-07T06:35:46;8.38;;;5.05;;
63444;SDS011;49573;47.682;9.170;2023-04-07T06:38:32;7.90;;;5.00;;
63444;SDS011;49573;47.682;9.170;2023-04-07T06:41:18;7.90;;;4.78;;
63444;SDS011;49573;47.682;9.170;2023-04-07T06:44:04;6.83;;;4.63;;
63444;SDS011;49573;47.682;9.170;2023-04-07T06:46:52;7.00;;;4.68;;
63444;SDS011;49573;47.682;9.170;2023-04-07T06:49:39;8.27;;;4.88;;
63444;SDS011;49573;47.682;9.170;2023-04-07T06:52:25;7.03;;;4.95;;
63444;SDS011;49573;47.682;9.170;2023-04-07T06:55:12;8.52;;;4.75;;
63444;SDS011;49573;47.682;9.170;2023-04-07T06:57:58;6.03;;;4.27;;
63444;SDS011;49573;47.682;9.170;2023-04-07T07:00:44;7.20;;;4.45;;
63444;SDS011;49573;47.682;9.170;2023-04-07T07:03:31;6.65;;;4.82;;
63444;SDS011;49573;47.682;9.170;2023-04-07T07:06:17;6.38;;;4.55;;
63444;SDS011;49573;47.682;9.170;2023-04-07T07:09:03;6.82;;;4.60;;
63444;SDS011;49573;47.682;9.170;2023-04-07T07:11:49;7.50;;;4.40;;
63444;SDS011;49573;47.682;9.170;2023-04-07T07:14:35;7.55;;;4.55;;
63444;SDS011;49573;47.682;9.170;2023-04-07T07:17:21;6.18;;;4.25;;
63444;SDS011;49573;47.682;9.170;2023-04-07T07:20:09;7.60;;;4.50;;
63444;SDS011;49573;47.682;9.170;2023-04-07T07:22:56;6.40;;;4.50;;
63444;SDS011;49573;47.682;9.170;2023-04-07T07:25:42;5.93;;;4.15;;
63444;SDS011;49573;47.682;9.170;2023-04-07T07:28:29;5.60;;;3.83;;
63444;SDS011;49573;47.682;9.170;2023-04-07T07:31:15;6.72;;;4.60;;
63444;SDS011;49573;47.682;9.170;2023-04-07T07:34:01;6.20;;;4.23;;
63444;SDS011;49573;47.682;9.170;2023-04-07T07:36:49;5.57;;;4.15;;
63444;SDS011;49573;47.682;9.170;2023-04-07T07:39:35;9.05;;;4.80;;
63444;SDS011;49573;47.682;9.170;2023-04-07T07:42:21;5.78;;;4.07;;
63444;SDS011;49573;47.682;9.170;2023-04-07T07:45:07;6.05;;;4.50;;
63444;SDS011;49573;47.682;9.170;2023-04-07T07:47:53;6.68;;;4.13;;
63444;SDS011;49573;47.682;9.170;2023-04-07T07:50:39;6.43;;;4.18;;
63444;SDS011;49573;47.682;9.170;2023-04-07T07:53:28;6.47;;;4.18;;
63444;SDS011;49573;47.682;9.170;2023-04-07T07:56:14;7.93;;;4.35;;
63444;SDS011;49573;47.682;9.170;2023-04-07T07:59:00;5.88;;;4.28;;
63444;SDS011;49573;47.682;9.170;2023-04-07T08:01:46;7.35;;;3.90;;
63444;SDS011;49573;47.682;9.170;2023-04-07T08:04:32;5.65;;;4.22;;
63444;SDS011;49573;47.682;9.170;2023-04-07T08:07:19;7.03;;;3.92;;
63444;SDS011;49573;47.682;9.170;2023-04-07T08:10:08;5.97;;;4.18;;
63444;SDS011;49573;47.682;9.170;2023-04-07T08:12:54;6.68;;;4.28;;
63444;SDS011;49573;47.682;9.170;2023-04-07T08:15:40;7.50;;;4.15;;
63444;SDS011;49573;47.682;9.170;2023-04-07T08:18:26;7.53;;;4.65;;
63444;SDS011;49573;47.682;9.170;2023-04-07T08:21:12;7.30;;;4.25;;
63444;SDS011;49573;47.682;9.170;2023-04-07T08:23:58;6.60;;;4.00;;
63444;SDS011;49573;47.682;9.170;2023-04-07T08:26:46;6.35;;;4.20;;
63444;SDS011;49573;47.682;9.170;2023-04-07T08:29:32;6.95;;;4.00;;
63444;SDS011;49573;47.682;9.170;2023-04-07T08:32:18;5.85;;;3.97;;
63444;SDS011;49573;47.682;9.170;2023-04-07T08:35:04;6.55;;;4.15;;
63444;SDS011;49573;47.682;9.170;2023-04-07T08:37:51;7.82;;;4.85;;
63444;SDS011;49573;47.682;9.170;2023-04-07T08:40:37;6.75;;;4.00;;
63444;SDS011;49573;47.682;9.170;2023-04-07T08:43:24;7.03;;;4.57;;
63444;SDS011;49573;47.682;9.170;2023-04-07T08:46:13;8.27;;;4.80;;
63444;SDS011;49573;47.682;9.170;2023-04-07T08:49:00;6.38;;;4.60;;
63444;SDS011;49573;47.682;9.170;2023-04-07T08:51:46;6.57;;;4.63;;
63444;SDS011;49573;47.682;9.170;2023-04-07T08:54:32;6.18;;;4.45;;
63444;SDS011;49573;47.682;9.170;2023-04-07T08:57:19;6.45;;;4.50;;
63444;SDS011;49573;47.682;9.170;2023-04-07T09:00:07;9.68;;;4.22;;
63444;SDS011;49573;47.682;9.170;2023-04-07T09:02:54;6.65;;;4.70;;
63444;SDS011;49573;47.682;9.170;2023-04-07T09:05:42;6.38;;;4.22;;
63444;SDS011;49573;47.682;9.170;2023-04-07T09:08:29;6.38;;;4.55;;
63444;SDS011;49573;47.682;9.170;2023-04-07T09:11:15;8.52;;;4.57;;
63444;SDS011;49573;47.682;9.170;2023-04-07T09:14:01;6.07;;;4.60;;
63444;SDS011;49573;47.682;9.170;2023-04-07T09:16:49;6.83;;;4.70;;
63444;SDS011;49573;47.682;9.170;2023-04-07T09:19:35;8.68;;;4.78;;
63444;SDS011;49573;47.682;9.170;2023-04-07T09:22:32;6.57;;;5.13;;
63444;SDS011;49573;47.682;9.170;2023-04-07T09:25:21;6.72;;;4.90;;
63444;SDS011;49573;47.682;9.170;2023-04-07T09:28:10;7.32;;;5.03;;
63444;SDS011;49573;47.682;9.170;2023-04-07T09:30:56;7.22;;;5.07;;
63444;SDS011;49573;47.682;9.170;2023-04-07T09:33:44;8.67;;;5.40;;
63444;SDS011;49573;47.682;9.170;2023-04-07T09:36:30;7.70;;;5.07;;
63444;SDS011;49573;47.682;9.170;2023-04-07T09:39:26;7.05;;;4.80;;
63444;SDS011;49573;47.682;9.170;2023-04-07T09:42:12;6.88;;;4.75;;
63444;SDS011;49573;47.682;9.170;2023-04-07T09:44:58;7.00;;;5.13;;
63444;SDS011;49573;47.682;9.170;2023-04-07T09:47:45;7.22;;;4.60;;
63444;SDS011;49573;47.682;9.170;2023-04-07T09:50:33;6.70;;;4.63;;
63444;SDS011;49573;47.682;9.170;2023-04-07T09:53:20;6.45;;;4.40;;
63444;SDS011;49573;47.682;9.170;2023-04-07T09:56:12;7.20;;;4.78;;
63444;SDS011;49573;47.682;9.170;2023-04-07T09:59:00;5.68;;;4.32;;
63444;SDS011;49573;47.682;9.170;2023-04-07T10:01:47;5.70;;;4.43;;
63444;SDS011;49573;47.682;9.170;2023-04-07T10:04:33;6.93;;;4.50;;
63444;SDS011;49573;47.682;9.170;2023-04-07T10:07:20;11.35;;;5.95;;
63444;SDS011;49573;47.682;9.170;2023-04-07T10:10:07;7.25;;;4.90;;
63444;SDS011;49573;47.682;9.170;2023-04-07T10:12:53;6.63;;;4.82;;
63444;SDS011;49573;47.682;9.170;2023-04-07T10:15:42;8.10;;;4.85;;
63444;SDS011;49573;47.682;9.170;2023-04-07T10:18:29;7.90;;;5.43;;
63444;SDS011;49573;47.682;9.170;2023-04-07T10:21:16;8.52;;;5.80;;
63444;SDS011;49573;47.682;9.170;2023-04-07T10:24:06;7.72;;;5.32;;
63444;SDS011;49573;47.682;9.170;2023-04-07T10:27:06;9.23;;;5.60;;
63444;SDS011;49573;47.682;9.170;2023-04-07T10:29:55;7.70;;;4.78;;
63444;SDS011;49573;47.682;9.170;2023-04-07T10:32:45;8.48;;;4.97;;
63444;SDS011;49573;47.682;9.170;2023-04-07T10:42:19;7.75;;;4.18;;
63444;SDS011;49573;47.682;9.170;2023-04-07T10:48:38;5.63;;;3.63;;
63444;SDS011;49573;47.682;9.170;2023-04-07T10:51:24;4.47;;;3.20;;
63444;SDS011;49573;47.682;9.170;2023-04-07T10:54:14;5.93;;;3.60;;
63444;SDS011;49573;47.682;9.170;2023-04-07T10:57:09;4.97;;;3.30;;
63444;SDS011;49573;47.682;9.170;2023-04-07T11:00:16;6.05;;;3.30;;
63444;SDS011;49573;47.682;9.170;2023-04-07T11:03:08;5.90;;;3.58;;
63444;SDS011;49573;47.682;9.170;2023-04-07T11:06:01;5.70;;;3.05;;
63444;SDS011;49573;47.682;9.170;2023-04-07T11:08:48;4.43;;;2.83;;
63444;SDS011;49573;47.682;9.170;2023-04-07T11:11:36;4.05;;;2.75;;
63444;SDS011;49573;47.682;9.170;2023-04-07T11:14:25;6.20;;;3.00;;
63444;SDS011;49573;47.682;9.170;2023-04-07T11:17:13;5.90;;;3.83;;
63444;SDS011;49573;47.682;9.170;2023-04-07T11:20:01;5.35;;;3.55;;
63444;SDS011;49573;47.682;9.170;2023-04-07T11:22:57;4.47;;;3.35;;
63444;SDS011;49573;47.682;9.170;2023-04-07T11:25:44;4.03;;;3.00;;
63444;SDS011;49573;47.682;9.170;2023-04-07T11:28:31;5.35;;;3.40;;
63444;SDS011;49573;47.682;9.170;2023-04-07T11:31:21;5.55;;;3.75;;
63444;SDS011;49573;47.682;9.170;2023-04-07T11:34:08;7.72;;;3.60;;
63444;SDS011;49573;47.682;9.170;2023-04-07T11:36:55;6.78;;;4.60;;
63444;SDS011;49573;47.682;9.170;2023-04-07T11:39:44;6.85;;;5.03;;
63444;SDS011;49573;47.682;9.170;2023-04-07T11:42:36;7.65;;;5.10;;
63444;SDS011;49573;47.682;9.170;2023-04-07T11:45:24;8.02;;;5.10;;
63444;SDS011;49573;47.682;9.170;2023-04-07T11:48:27;6.38;;;4.40;;
63444;SDS011;49573;47.682;9.170;2023-04-07T11:51:14;7.07;;;4.75;;
63444;SDS011;49573;47.682;9.170;2023-04-07T11:54:01;5.25;;;4.03;;
63444;SDS011;49573;47.682;9.170;2023-04-07T11:56:48;7.32;;;5.18;;
63444;SDS011;49573;47.682;9.170;2023-04-07T11:59:35;7.28;;;5.22;;
63444;SDS011;49573;47.682;9.170;2023-04-07T12:02:31;8.90;;;5.43;;
63444;SDS011;49573;47.682;9.170;2023-04-07T12:05:19;8.02;;;5.43;;
63444;SDS011;49573;47.682;9.170;2023-04-07T12:08:05;9.07;;;4.85;;
63444;SDS011;49573;47.682;9.170;2023-04-07T12:11:01;7.67;;;4.97;;
63444;SDS011;49573;47.682;9.170;2023-04-07T12:13:48;7.28;;;4.95;;
63444;SDS011;49573;47.682;9.170;2023-04-07T12:16:36;6.60;;;5.20;;
63444;SDS011;49573;47.682;9.170;2023-04-07T12:19:24;6.72;;;4.88;;
63444;SDS011;49573;47.682;9.170;2023-04-07T12:22:13;7.57;;;5.20;;
63444;SDS011;49573;47.682;9.170;2023-04-07T12:25:00;6.80;;;5.05;;
63444;SDS011;49573;47.682;9.170;2023-04-07T12:27:46;7.35;;;5.18;;
63444;SDS011;49573;47.682;9.170;2023-04-07T12:30:32;7.18;;;4.97;;
63444;SDS011;49573;47.682;9.170;2023-04-07T12:33:18;6.27;;;4.50;;
63444;SDS011;49573;47.682;9.170;2023-04-07T12:36:04;5.77;;;4.47;;
63444;SDS011;49573;47.682;9.170;2023-04-07T12:38:52;6.05;;;4.57;;
63444;SDS011;49573;47.682;9.170;2023-04-07T12:41:39;5.47;;;3.92;;
63444;SDS011;49573;47.682;9.170;2023-04-07T12:44:28;17.88;;;4.97;;
63444;SDS011;49573;47.682;9.170;2023-04-07T12:47:17;5.72;;;4.13;;
63444;SDS011;49573;47.682;9.170;2023-04-07T12:50:04;6.03;;;4.20;;
63444;SDS011;49573;47.682;9.170;2023-04-07T12:52:51;6.18;;;4.18;;
63444;SDS011;49573;47.682;9.170;2023-04-07T12:55:39;5.90;;;4.25;;
63444;SDS011;49573;47.682;9.170;2023-04-07T12:58:25;5.75;;;4.47;;
63444;SDS011;49573;47.682;9.170;2023-04-07T13:01:11;5.05;;;3.90;;
63444;SDS011;49573;47.682;9.170;2023-04-07T13:03:57;5.20;;;3.70;;
63444;SDS011;49573;47.682;9.170;2023-04-07T13:06:43;6.00;;;3.78;;
63444;SDS011;49573;47.682;9.170;2023-04-07T13:09:29;5.27;;;3.90;;
63444;SDS011;49573;47.682;9.170;2023-04-07T13:12:17;6.07;;;3.87;;
63444;SDS011;49573;47.682;9.170;2023-04-07T13:15:03;4.55;;;3.47;;
63444;SDS011;49573;47.682;9.170;2023-04-07T13:20:36;4.00;;;3.30;;
63444;SDS011;49573;47.682;9.170;2023-04-07T13:23:23;5.65;;;3.22;;
63444;SDS011;49573;47.682;9.170;2023-04-07T13:26:09;5.97;;;4.60;;
63444;SDS011;49573;47.682;9.170;2023-04-07T13:28:56;5.20;;;3.50;;
63444;SDS011;49573;47.682;9.170;2023-04-07T13:31:44;5.60;;;3.60;;
63444;SDS011;49573;47.682;9.170;2023-04-07T13:34:30;5.30;;;3.20;;
63444;SDS011;49573;47.682;9.170;2023-04-07T13:37:16;5.25;;;3.20;;
63444;SDS011;49573;47.682;9.170;2023-04-07T13:40:04;4.60;;;2.80;;
63444;SDS011;49573;47.682;9.170;2023-04-07T13:42:51;4.35;;;3.05;;
63444;SDS011;49573;47.682;9.170;2023-04-07T13:45:39;3.43;;;2.70;;
63444;SDS011;49573;47.682;9.170;2023-04-07T13:48:25;4.13;;;2.75;;
63444;SDS011;49573;47.682;9.170;2023-04-07T13:51:11;3.63;;;2.97;;
63444;SDS011;49573;47.682;9.170;2023-04-07T13:53:57;4.05;;;3.20;;
63444;SDS011;49573;47.682;9.170;2023-04-07T13:56:43;4.25;;;2.80;;
63444;SDS011;49573;47.682;9.170;2023-04-07T13:59:30;3.38;;;2.67;;
63444;SDS011;49573;47.682;9.170;2023-04-07T14:02:17;3.95;;;2.60;;
63444;SDS011;49573;47.682;9.170;2023-04-07T14:05:04;3.67;;;2.50;;
63444;SDS011;49573;47.682;9.170;2023-04-07T14:07:50;5.10;;;2.70;;
63444;SDS011;49573;47.682;9.170;2023-04-07T14:10:37;3.67;;;2.70;;
63444;SDS011;49573;47.682;9.170;2023-04-07T14:13:24;4.22;;;2.60;;
63444;SDS011;49573;47.682;9.170;2023-04-07T14:16:10;3.58;;;2.50;;
63444;SDS011;49573;47.682;9.170;2023-04-07T14:18:58;3.65;;;2.72;;
63444;SDS011;49573;47.682;9.170;2023-04-07T14:21:44;3.92;;;2.58;;
63444;SDS011;49573;47.682;9.170;2023-04-07T14:24:30;3.25;;;2.58;;
63444;SDS011;49573;47.682;9.170;2023-04-07T14:27:16;3.23;;;2.27;;
63444;SDS011;49573;47.682;9.170;2023-04-07T14:30:05;4.15;;;2.95;;
63444;SDS011;49573;47.682;9.170;2023-04-07T14:32:52;4.43;;;3.05;;
63444;SDS011;49573;47.682;9.170;2023-04-07T14:35:39;3.67;;;2.73;;
63444;SDS011;49573;47.682;9.170;2023-04-07T14:38:26;4.47;;;2.70;;
63444;SDS011;49573;47.682;9.170;2023-04-07T14:41:12;3.20;;;2.50;;
63444;SDS011;49573;47.682;9.170;2023-04-07T14:43:58;4.07;;;2.80;;
63444;SDS011;49573;47.682;9.170;2023-04-07T14:46:44;3.85;;;2.70;;
63444;SDS011;49573;47.682;9.170;2023-04-07T14:49:30;3.30;;;2.58;;
63444;SDS011;49573;47.682;9.170;2023-04-07T14:52:18;5.47;;;3.10;;
63444;SDS011;49573;47.682;9.170;2023-04-07T14:55:06;4.60;;;2.78;;
63444;SDS011;49573;47.682;9.170;2023-04-07T14:57:53;3.55;;;2.63;;
63444;SDS011;49573;47.682;9.170;2023-04-07T15:00:39;5.33;;;3.13;;
63444;SDS011;49573;47.682;9.170;2023-04-07T15:03:25;6.20;;;3.00;;
63444;SDS011;49573;47.682;9.170;2023-04-07T15:06:11;4.03;;;2.70;;
63444;SDS011;49573;47.682;9.170;2023-04-07T15:08:59;3.95;;;2.83;;
63444;SDS011;49573;47.682;9.170;2023-04-07T15:11:45;3.83;;;2.55;;
63444;SDS011;49573;47.682;9.170;2023-04-07T15:14:31;4.20;;;2.90;;
63444;SDS011;49573;47.682;9.170;2023-04-07T15:17:17;3.72;;;2.70;;
63444;SDS011;49573;47.682;9.170;2023-04-07T15:20:04;4.30;;;2.80;;
63444;SDS011;49573;47.682;9.170;2023-04-07T15:25:38;4.50;;;2.88;;
63444;SDS011;49573;47.682;9.170;2023-04-07T15:28:24;4.18;;;3.15;;
63444;SDS011;49573;47.682;9.170;2023-04-07T15:31:10;4.93;;;3.00;;
63444;SDS011;49573;47.682;9.170;2023-04-07T15:33:57;7.23;;;3.10;;
63444;SDS011;49573;47.682;9.170;2023-04-07T15:36:43;3.95;;;2.85;;
63444;SDS011;49573;47.682;9.170;2023-04-07T15:39:29;3.55;;;2.70;;
63444;SDS011;49573;47.682;9.170;2023-04-07T15:42:16;4.32;;;2.67;;
63444;SDS011;49573;47.682;9.170;2023-04-07T15:45:02;4.95;;;3.05;;
63444;SDS011;49573;47.682;9.170;2023-04-07T15:47:50;3.85;;;2.60;;
63444;SDS011;49573;47.682;9.170;2023-04-07T15:50:37;3.65;;;2.65;;
63444;SDS011;49573;47.682;9.170;2023-04-07T15:53:23;4.53;;;2.63;;
63444;SDS011;49573;47.682;9.170;2023-04-07T15:56:09;5.00;;;2.97;;
63444;SDS011;49573;47.682;9.170;2023-04-07T15:58:57;4.75;;;2.78;;
63444;SDS011;49573;47.682;9.170;2023-04-07T16:01:43;3.95;;;2.83;;
63444;SDS011;49573;47.682;9.170;2023-04-07T16:04:29;3.70;;;2.70;;
63444;SDS011;49573;47.682;9.170;2023-04-07T16:07:15;4.65;;;2.85;;
63444;SDS011;49573;47.682;9.170;2023-04-07T16:10:01;4.85;;;2.67;;
63444;SDS011;49573;47.682;9.170;2023-04-07T16:12:48;3.50;;;2.60;;
63444;SDS011;49573;47.682;9.170;2023-04-07T16:15:35;3.42;;;2.28;;
63444;SDS011;49573;47.682;9.170;2023-04-07T16:18:21;3.88;;;2.78;;
63444;SDS011;49573;47.682;9.170;2023-04-07T16:21:07;3.70;;;2.60;;
63444;SDS011;49573;47.682;9.170;2023-04-07T16:23:54;3.50;;;2.13;;
63444;SDS011;49573;47.682;9.170;2023-04-07T16:26:40;3.83;;;2.78;;
63444;SDS011;49573;47.682;9.170;2023-04-07T16:29:26;2.65;;;2.10;;
63444;SDS011;49573;47.682;9.170;2023-04-07T16:32:13;3.72;;;2.20;;
63444;SDS011;49573;47.682;9.170;2023-04-07T16:34:59;3.83;;;2.45;;
63444;SDS011;49573;47.682;9.170;2023-04-07T16:37:45;4.57;;;2.70;;
63444;SDS011;49573;47.682;9.170;2023-04-07T16:40:32;3.25;;;1.92;;
63444;SDS011;49573;47.682;9.170;2023-04-07T16:43:18;3.22;;;2.30;;
63444;SDS011;49573;47.682;9.170;2023-04-07T16:46:04;3.03;;;2.07;;
63444;SDS011;49573;47.682;9.170;2023-04-07T16:48:52;2.75;;;1.92;;
63444;SDS011;49573;47.682;9.170;2023-04-07T16:51:38;2.08;;;1.77;;
63444;SDS011;49573;47.682;9.170;2023-04-07T16:54:24;3.50;;;2.08;;
63444;SDS011;49573;47.682;9.170;2023-04-07T16:57:10;3.60;;;2.17;;
63444;SDS011;49573;47.682;9.170;2023-04-07T16:59:56;3.07;;;2.03;;
63444;SDS011;49573;47.682;9.170;2023-04-07T17:02:43;3.25;;;1.80;;
63444;SDS011;49573;47.682;9.170;2023-04-07T17:05:30;3.20;;;2.20;;
63444;SDS011;49573;47.682;9.170;2023-04-07T17:08:16;3.10;;;2.10;;
63444;SDS011;49573;47.682;9.170;2023-04-07T17:11:04;4.03;;;2.20;;